VABB/BOM METAR and TAF weather

Enter ICAO airport designator
Station Type Date Time Source
VABB METAR 2019/08/24 17:30 UTC NOAA

VABB 241730Z 21006KT 3000 HZ SCT020 SCT100 28/24 Q1007 NOSIG


Station Type Date Time Source
VABB Decoded METAR 2019/08/24 17:30 UTC NOAA

Station name not available
Aug 24, 2019 - 01:30 PM EDT / 2019.08.24 1730 UTC
Wind: from the SSW (210 degrees) at 7 MPH (6 KT):0
Visibility: 1 mile(s):0
Sky conditions: partly cloudy
Weather: haze
Temperature: 82 F (28 C)
Dew Point: 75 F (24 C)
Relative Humidity: 78%
Pressure (altimeter): 29.74 in. Hg (1007 hPa)
ob: VABB 241730Z 21006KT 3000 HZ SCT020 SCT100 28/24 Q1007 NOSIG
cycle: 17

Station Type Date Time Source
VABB TAF 2019/08/24 18:09 UTC NOAA

TAF TAF VABB 241700Z 2418/2524 23008KT 3000 HZ FEW020 SCT025 BKN100
TEMPO 2421/2503 2000 -SHRA SCT012 FEW025TCU BKN080
BECMG 2504/2506 26012KT 4000 HZ
TEMPO 2512/2518 2000 -SHRA SCT015 FEW025TCU BKN090
BECMG 2518/2520 22007KT 3000 HZ

Example: see airport list